sensor_id;sensor_type;location;lat;lon;timestamp;P1;durP1;ratioP1;P2;durP2;ratioP2
19030;SDS011;9648;51.130;13.978;2023-06-01T00:01:54;5.97;;;3.30;;
19030;SDS011;9648;51.130;13.978;2023-06-01T00:04:21;5.00;;;3.28;;
19030;SDS011;9648;51.130;13.978;2023-06-01T00:06:48;4.88;;;3.30;;
19030;SDS011;9648;51.130;13.978;2023-06-01T00:09:14;7.78;;;3.60;;
19030;SDS011;9648;51.130;13.978;2023-06-01T00:11:43;5.97;;;3.23;;
19030;SDS011;9648;51.130;13.978;2023-06-01T00:14:10;6.35;;;3.33;;
19030;SDS011;9648;51.130;13.978;2023-06-01T00:16:37;4.65;;;3.10;;
19030;SDS011;9648;51.130;13.978;2023-06-01T00:19:05;6.43;;;3.40;;
19030;SDS011;9648;51.130;13.978;2023-06-01T00:21:32;6.27;;;3.53;;
19030;SDS011;9648;51.130;13.978;2023-06-01T00:24:00;5.45;;;3.20;;
19030;SDS011;9648;51.130;13.978;2023-06-01T00:26:27;5.57;;;3.00;;
19030;SDS011;9648;51.130;13.978;2023-06-01T00:28:58;5.45;;;3.53;;
19030;SDS011;9648;51.130;13.978;2023-06-01T00:31:25;5.57;;;3.42;;
19030;SDS011;9648;51.130;13.978;2023-06-01T00:33:52;4.55;;;3.13;;
19030;SDS011;9648;51.130;13.978;2023-06-01T00:36:19;7.00;;;3.60;;
19030;SDS011;9648;51.130;13.978;2023-06-01T00:38:46;6.38;;;3.28;;
19030;SDS011;9648;51.130;13.978;2023-06-01T00:41:13;6.68;;;3.53;;
19030;SDS011;9648;51.130;13.978;2023-06-01T00:43:40;5.15;;;3.30;;
19030;SDS011;9648;51.130;13.978;2023-06-01T00:46:08;4.85;;;3.40;;
19030;SDS011;9648;51.130;13.978;2023-06-01T00:48:35;5.20;;;3.38;;
19030;SDS011;9648;51.130;13.978;2023-06-01T00:51:02;6.13;;;3.30;;
19030;SDS011;9648;51.130;13.978;2023-06-01T00:53:29;6.65;;;3.50;;
19030;SDS011;9648;51.130;13.978;2023-06-01T00:55:56;5.97;;;3.50;;
19030;SDS011;9648;51.130;13.978;2023-06-01T00:58:23;6.13;;;3.10;;
19030;SDS011;9648;51.130;13.978;2023-06-01T01:00:50;6.27;;;3.40;;
19030;SDS011;9648;51.130;13.978;2023-06-01T01:03:20;5.88;;;3.65;;
19030;SDS011;9648;51.130;13.978;2023-06-01T01:05:51;5.00;;;3.33;;
19030;SDS011;9648;51.130;13.978;2023-06-01T01:08:27;5.18;;;3.58;;
19030;SDS011;9648;51.130;13.978;2023-06-01T01:10:59;5.88;;;3.30;;
19030;SDS011;9648;51.130;13.978;2023-06-01T01:13:31;5.97;;;3.10;;
19030;SDS011;9648;51.130;13.978;2023-06-01T01:16:07;6.97;;;3.40;;
19030;SDS011;9648;51.130;13.978;2023-06-01T01:18:44;5.55;;;3.30;;
19030;SDS011;9648;51.130;13.978;2023-06-01T01:21:19;5.80;;;3.27;;
19030;SDS011;9648;51.130;13.978;2023-06-01T01:23:55;5.20;;;3.33;;
19030;SDS011;9648;51.130;13.978;2023-06-01T01:26:57;5.20;;;3.50;;
19030;SDS011;9648;51.130;13.978;2023-06-01T01:29:37;5.13;;;3.30;;
19030;SDS011;9648;51.130;13.978;2023-06-01T01:32:05;5.82;;;3.70;;
19030;SDS011;9648;51.130;13.978;2023-06-01T01:34:33;6.00;;;3.20;;
19030;SDS011;9648;51.130;13.978;2023-06-01T01:37:01;5.22;;;3.28;;
19030;SDS011;9648;51.130;13.978;2023-06-01T01:39:28;5.88;;;3.47;;
19030;SDS011;9648;51.130;13.978;2023-06-01T01:41:55;6.18;;;4.00;;
19030;SDS011;9648;51.130;13.978;2023-06-01T01:44:22;7.32;;;3.55;;
19030;SDS011;9648;51.130;13.978;2023-06-01T01:46:52;6.20;;;3.67;;
19030;SDS011;9648;51.130;13.978;2023-06-01T01:49:24;5.37;;;3.70;;
19030;SDS011;9648;51.130;13.978;2023-06-01T01:51:56;5.93;;;3.40;;
19030;SDS011;9648;51.130;13.978;2023-06-01T01:54:29;5.97;;;3.35;;
19030;SDS011;9648;51.130;13.978;2023-06-01T01:56:58;5.40;;;3.25;;
19030;SDS011;9648;51.130;13.978;2023-06-01T01:59:27;6.07;;;3.28;;
19030;SDS011;9648;51.130;13.978;2023-06-01T02:01:55;5.45;;;3.50;;
19030;SDS011;9648;51.130;13.978;2023-06-01T02:04:23;5.32;;;3.50;;
19030;SDS011;9648;51.130;13.978;2023-06-01T02:06:49;6.03;;;3.37;;
19030;SDS011;9648;51.130;13.978;2023-06-01T02:09:16;8.70;;;3.88;;
19030;SDS011;9648;51.130;13.978;2023-06-01T02:11:43;6.00;;;3.20;;
19030;SDS011;9648;51.130;13.978;2023-06-01T02:14:10;4.90;;;3.05;;
19030;SDS011;9648;51.130;13.978;2023-06-01T02:16:37;5.05;;;3.25;;
19030;SDS011;9648;51.130;13.978;2023-06-01T02:19:05;6.68;;;3.58;;
19030;SDS011;9648;51.130;13.978;2023-06-01T02:21:36;4.97;;;3.05;;
19030;SDS011;9648;51.130;13.978;2023-06-01T02:24:03;7.10;;;3.55;;
19030;SDS011;9648;51.130;13.978;2023-06-01T02:26:32;5.55;;;3.20;;
19030;SDS011;9648;51.130;13.978;2023-06-01T02:28:59;5.50;;;3.28;;
19030;SDS011;9648;51.130;13.978;2023-06-01T02:31:30;5.97;;;3.58;;
19030;SDS011;9648;51.130;13.978;2023-06-01T02:33:57;6.88;;;3.40;;
19030;SDS011;9648;51.130;13.978;2023-06-01T02:36:26;5.35;;;3.45;;
19030;SDS011;9648;51.130;13.978;2023-06-01T02:38:54;5.55;;;3.42;;
19030;SDS011;9648;51.130;13.978;2023-06-01T02:41:20;5.80;;;3.50;;
19030;SDS011;9648;51.130;13.978;2023-06-01T02:43:47;5.60;;;3.07;;
19030;SDS011;9648;51.130;13.978;2023-06-01T02:46:15;6.33;;;3.33;;
19030;SDS011;9648;51.130;13.978;2023-06-01T02:48:42;4.90;;;3.13;;
19030;SDS011;9648;51.130;13.978;2023-06-01T02:51:09;5.97;;;3.20;;
19030;SDS011;9648;51.130;13.978;2023-06-01T02:53:37;5.55;;;3.00;;
19030;SDS011;9648;51.130;13.978;2023-06-01T02:56:05;5.65;;;3.05;;
19030;SDS011;9648;51.130;13.978;2023-06-01T02:58:32;7.30;;;3.43;;
19030;SDS011;9648;51.130;13.978;2023-06-01T03:00:59;4.45;;;3.33;;
19030;SDS011;9648;51.130;13.978;2023-06-01T03:03:26;3.92;;;2.90;;
19030;SDS011;9648;51.130;13.978;2023-06-01T03:05:53;5.87;;;3.53;;
19030;SDS011;9648;51.130;13.978;2023-06-01T03:08:22;7.25;;;3.28;;
19030;SDS011;9648;51.130;13.978;2023-06-01T03:10:51;4.47;;;3.17;;
19030;SDS011;9648;51.130;13.978;2023-06-01T03:13:18;5.45;;;3.10;;
19030;SDS011;9648;51.130;13.978;2023-06-01T03:15:45;5.22;;;3.20;;
19030;SDS011;9648;51.130;13.978;2023-06-01T03:18:11;6.68;;;3.10;;
19030;SDS011;9648;51.130;13.978;2023-06-01T03:20:39;6.80;;;3.17;;
19030;SDS011;9648;51.130;13.978;2023-06-01T03:23:05;5.00;;;3.05;;
19030;SDS011;9648;51.130;13.978;2023-06-01T03:25:32;5.27;;;3.13;;
19030;SDS011;9648;51.130;13.978;2023-06-01T03:28:01;8.48;;;3.60;;
19030;SDS011;9648;51.130;13.978;2023-06-01T03:30:27;5.72;;;3.30;;
19030;SDS011;9648;51.130;13.978;2023-06-01T03:32:54;6.45;;;3.00;;
19030;SDS011;9648;51.130;13.978;2023-06-01T03:35:21;5.82;;;3.00;;
19030;SDS011;9648;51.130;13.978;2023-06-01T03:37:48;6.37;;;3.43;;
19030;SDS011;9648;51.130;13.978;2023-06-01T03:40:15;6.15;;;3.35;;
19030;SDS011;9648;51.130;13.978;2023-06-01T03:42:43;6.93;;;3.30;;
19030;SDS011;9648;51.130;13.978;2023-06-01T03:45:13;5.18;;;3.40;;
19030;SDS011;9648;51.130;13.978;2023-06-01T03:47:41;3.50;;;2.47;;
19030;SDS011;9648;51.130;13.978;2023-06-01T03:50:08;5.53;;;2.92;;
19030;SDS011;9648;51.130;13.978;2023-06-01T03:52:36;6.10;;;3.17;;
19030;SDS011;9648;51.130;13.978;2023-06-01T03:55:04;5.63;;;3.08;;
19030;SDS011;9648;51.130;13.978;2023-06-01T03:57:35;6.75;;;2.92;;
19030;SDS011;9648;51.130;13.978;2023-06-01T04:00:02;4.28;;;3.10;;
19030;SDS011;9648;51.130;13.978;2023-06-01T04:02:44;6.10;;;3.20;;
19030;SDS011;9648;51.130;13.978;2023-06-01T04:05:13;7.13;;;3.33;;
19030;SDS011;9648;51.130;13.978;2023-06-01T04:07:42;6.57;;;3.17;;
19030;SDS011;9648;51.130;13.978;2023-06-01T04:10:10;6.20;;;3.42;;
19030;SDS011;9648;51.130;13.978;2023-06-01T04:12:39;5.32;;;3.28;;
19030;SDS011;9648;51.130;13.978;2023-06-01T04:15:07;4.53;;;3.27;;
19030;SDS011;9648;51.130;13.978;2023-06-01T04:17:35;7.50;;;3.20;;
19030;SDS011;9648;51.130;13.978;2023-06-01T04:20:04;4.63;;;2.88;;
19030;SDS011;9648;51.130;13.978;2023-06-01T04:22:32;4.93;;;3.10;;
19030;SDS011;9648;51.130;13.978;2023-06-01T04:25:03;6.95;;;3.50;;
19030;SDS011;9648;51.130;13.978;2023-06-01T04:27:32;7.82;;;3.50;;
19030;SDS011;9648;51.130;13.978;2023-06-01T04:30:02;5.95;;;3.40;;
19030;SDS011;9648;51.130;13.978;2023-06-01T04:32:30;6.25;;;3.30;;
19030;SDS011;9648;51.130;13.978;2023-06-01T04:34:57;5.78;;;3.30;;
19030;SDS011;9648;51.130;13.978;2023-06-01T04:37:26;7.37;;;3.53;;
19030;SDS011;9648;51.130;13.978;2023-06-01T04:39:53;5.60;;;2.92;;
19030;SDS011;9648;51.130;13.978;2023-06-01T04:42:21;5.88;;;3.28;;
19030;SDS011;9648;51.130;13.978;2023-06-01T04:44:49;4.72;;;3.00;;
19030;SDS011;9648;51.130;13.978;2023-06-01T04:47:25;5.65;;;3.55;;
19030;SDS011;9648;51.130;13.978;2023-06-01T04:49:52;5.10;;;3.13;;
19030;SDS011;9648;51.130;13.978;2023-06-01T04:52:19;6.95;;;3.65;;
19030;SDS011;9648;51.130;13.978;2023-06-01T04:54:47;6.20;;;3.40;;
19030;SDS011;9648;51.130;13.978;2023-06-01T04:57:14;6.22;;;3.42;;
19030;SDS011;9648;51.130;13.978;2023-06-01T04:59:41;8.10;;;3.33;;
19030;SDS011;9648;51.130;13.978;2023-06-01T05:02:09;7.82;;;3.47;;
19030;SDS011;9648;51.130;13.978;2023-06-01T05:04:36;5.85;;;3.53;;
19030;SDS011;9648;51.130;13.978;2023-06-01T05:07:03;5.95;;;3.50;;
19030;SDS011;9648;51.130;13.978;2023-06-01T05:09:30;5.22;;;3.10;;
19030;SDS011;9648;51.130;13.978;2023-06-01T05:12:02;8.40;;;3.63;;
19030;SDS011;9648;51.130;13.978;2023-06-01T05:14:29;10.50;;;3.97;;
19030;SDS011;9648;51.130;13.978;2023-06-01T05:16:55;6.20;;;3.60;;
19030;SDS011;9648;51.130;13.978;2023-06-01T05:19:22;6.60;;;3.40;;
19030;SDS011;9648;51.130;13.978;2023-06-01T05:21:49;8.18;;;3.75;;
19030;SDS011;9648;51.130;13.978;2023-06-01T05:24:16;5.83;;;3.50;;
19030;SDS011;9648;51.130;13.978;2023-06-01T05:26:44;9.70;;;3.58;;
19030;SDS011;9648;51.130;13.978;2023-06-01T05:29:13;9.10;;;3.65;;
19030;SDS011;9648;51.130;13.978;2023-06-01T05:31:40;6.45;;;3.28;;
19030;SDS011;9648;51.130;13.978;2023-06-01T05:34:06;7.05;;;3.65;;
19030;SDS011;9648;51.130;13.978;2023-06-01T05:36:33;9.83;;;3.90;;
19030;SDS011;9648;51.130;13.978;2023-06-01T05:39:00;5.55;;;3.30;;
19030;SDS011;9648;51.130;13.978;2023-06-01T05:41:28;5.30;;;3.58;;
19030;SDS011;9648;51.130;13.978;2023-06-01T05:43:55;6.78;;;3.60;;
19030;SDS011;9648;51.130;13.978;2023-06-01T05:46:23;8.38;;;3.47;;
19030;SDS011;9648;51.130;13.978;2023-06-01T05:48:50;6.07;;;3.00;;
19030;SDS011;9648;51.130;13.978;2023-06-01T05:51:17;7.43;;;3.30;;
19030;SDS011;9648;51.130;13.978;2023-06-01T05:53:44;5.78;;;3.22;;
19030;SDS011;9648;51.130;13.978;2023-06-01T05:56:11;6.80;;;2.92;;
19030;SDS011;9648;51.130;13.978;2023-06-01T05:58:38;4.60;;;3.05;;
19030;SDS011;9648;51.130;13.978;2023-06-01T06:01:05;5.60;;;3.00;;
19030;SDS011;9648;51.130;13.978;2023-06-01T06:03:33;5.70;;;3.17;;
19030;SDS011;9648;51.130;13.978;2023-06-01T06:06:00;5.18;;;3.05;;
19030;SDS011;9648;51.130;13.978;2023-06-01T06:08:27;6.32;;;2.40;;
19030;SDS011;9648;51.130;13.978;2023-06-01T06:10:54;5.78;;;2.90;;
19030;SDS011;9648;51.130;13.978;2023-06-01T06:13:21;5.35;;;2.75;;
19030;SDS011;9648;51.130;13.978;2023-06-01T06:15:48;4.82;;;2.60;;
19030;SDS011;9648;51.130;13.978;2023-06-01T06:18:15;5.07;;;2.80;;
19030;SDS011;9648;51.130;13.978;2023-06-01T06:20:43;5.45;;;2.90;;
19030;SDS011;9648;51.130;13.978;2023-06-01T06:23:10;4.60;;;2.83;;
19030;SDS011;9648;51.130;13.978;2023-06-01T06:25:37;5.60;;;3.00;;
19030;SDS011;9648;51.130;13.978;2023-06-01T06:28:05;5.13;;;2.88;;
19030;SDS011;9648;51.130;13.978;2023-06-01T06:30:31;3.80;;;2.78;;
19030;SDS011;9648;51.130;13.978;2023-06-01T06:32:58;6.18;;;2.90;;
19030;SDS011;9648;51.130;13.978;2023-06-01T06:35:25;4.23;;;2.90;;
19030;SDS011;9648;51.130;13.978;2023-06-01T06:37:54;4.07;;;2.45;;
19030;SDS011;9648;51.130;13.978;2023-06-01T06:40:20;5.50;;;2.53;;
19030;SDS011;9648;51.130;13.978;2023-06-01T06:42:47;6.43;;;2.58;;
19030;SDS011;9648;51.130;13.978;2023-06-01T06:45:15;6.72;;;2.78;;
19030;SDS011;9648;51.130;13.978;2023-06-01T06:47:42;9.32;;;2.95;;
19030;SDS011;9648;51.130;13.978;2023-06-01T06:50:10;7.00;;;2.97;;
19030;SDS011;9648;51.130;13.978;2023-06-01T06:52:37;5.60;;;3.03;;
19030;SDS011;9648;51.130;13.978;2023-06-01T06:55:06;6.63;;;2.80;;
19030;SDS011;9648;51.130;13.978;2023-06-01T06:57:34;5.47;;;2.95;;
19030;SDS011;9648;51.130;13.978;2023-06-01T07:00:00;6.90;;;2.80;;
19030;SDS011;9648;51.130;13.978;2023-06-01T07:02:32;5.43;;;2.90;;
19030;SDS011;9648;51.130;13.978;2023-06-01T07:04:59;4.80;;;2.67;;
19030;SDS011;9648;51.130;13.978;2023-06-01T07:07:26;5.35;;;3.05;;
19030;SDS011;9648;51.130;13.978;2023-06-01T07:09:52;7.72;;;3.25;;
19030;SDS011;9648;51.130;13.978;2023-06-01T07:12:21;5.45;;;2.90;;
19030;SDS011;9648;51.130;13.978;2023-06-01T07:14:48;5.18;;;2.92;;
19030;SDS011;9648;51.130;13.978;2023-06-01T07:17:14;5.50;;;2.87;;
19030;SDS011;9648;51.130;13.978;2023-06-01T07:19:41;7.43;;;2.95;;
19030;SDS011;9648;51.130;13.978;2023-06-01T07:22:08;6.13;;;2.97;;
19030;SDS011;9648;51.130;13.978;2023-06-01T07:24:35;5.55;;;3.17;;
19030;SDS011;9648;51.130;13.978;2023-06-01T07:27:02;6.57;;;2.92;;
19030;SDS011;9648;51.130;13.978;2023-06-01T07:29:31;6.13;;;3.30;;
19030;SDS011;9648;51.130;13.978;2023-06-01T07:31:58;5.50;;;2.55;;
19030;SDS011;9648;51.130;13.978;2023-06-01T07:34:25;6.73;;;3.00;;
19030;SDS011;9648;51.130;13.978;2023-06-01T07:36:52;6.35;;;2.90;;
19030;SDS011;9648;51.130;13.978;2023-06-01T07:39:24;5.82;;;3.08;;
19030;SDS011;9648;51.130;13.978;2023-06-01T07:41:51;6.50;;;3.25;;
19030;SDS011;9648;51.130;13.978;2023-06-01T07:44:19;7.28;;;3.03;;
19030;SDS011;9648;51.130;13.978;2023-06-01T07:46:47;7.43;;;3.15;;
19030;SDS011;9648;51.130;13.978;2023-06-01T07:49:14;6.68;;;3.08;;
19030;SDS011;9648;51.130;13.978;2023-06-01T07:51:41;4.72;;;2.70;;
19030;SDS011;9648;51.130;13.978;2023-06-01T07:54:08;7.70;;;2.97;;
19030;SDS011;9648;51.130;13.978;2023-06-01T07:56:35;6.78;;;2.80;;
19030;SDS011;9648;51.130;13.978;2023-06-01T07:59:02;4.70;;;2.95;;
19030;SDS011;9648;51.130;13.978;2023-06-01T08:01:29;6.50;;;2.70;;
19030;SDS011;9648;51.130;13.978;2023-06-01T08:03:57;6.20;;;2.90;;
19030;SDS011;9648;51.130;13.978;2023-06-01T08:06:24;6.90;;;2.95;;
19030;SDS011;9648;51.130;13.978;2023-06-01T08:08:51;6.88;;;3.00;;
19030;SDS011;9648;51.130;13.978;2023-06-01T08:11:18;5.88;;;3.00;;
19030;SDS011;9648;51.130;13.978;2023-06-01T08:13:46;5.85;;;3.03;;
19030;SDS011;9648;51.130;13.978;2023-06-01T08:16:13;5.95;;;3.22;;
19030;SDS011;9648;51.130;13.978;2023-06-01T08:18:40;6.05;;;2.75;;
19030;SDS011;9648;51.130;13.978;2023-06-01T08:21:08;6.85;;;2.83;;
19030;SDS011;9648;51.130;13.978;2023-06-01T08:23:35;5.90;;;2.80;;
19030;SDS011;9648;51.130;13.978;2023-06-01T08:26:02;9.30;;;3.10;;
19030;SDS011;9648;51.130;13.978;2023-06-01T08:28:29;6.80;;;2.80;;
19030;SDS011;9648;51.130;13.978;2023-06-01T08:30:57;6.15;;;3.03;;
19030;SDS011;9648;51.130;13.978;2023-06-01T08:33:24;6.63;;;2.72;;
19030;SDS011;9648;51.130;13.978;2023-06-01T08:35:51;7.53;;;2.97;;
19030;SDS011;9648;51.130;13.978;2023-06-01T08:38:20;6.43;;;3.00;;
19030;SDS011;9648;51.130;13.978;2023-06-01T08:40:47;6.43;;;2.72;;
19030;SDS011;9648;51.130;13.978;2023-06-01T08:43:16;5.65;;;2.72;;
19030;SDS011;9648;51.130;13.978;2023-06-01T08:45:45;8.32;;;2.80;;
19030;SDS011;9648;51.130;13.978;2023-06-01T08:48:14;8.43;;;2.60;;
19030;SDS011;9648;51.130;13.978;2023-06-01T08:50:46;6.53;;;2.70;;
19030;SDS011;9648;51.130;13.978;2023-06-01T08:53:15;9.20;;;2.90;;
19030;SDS011;9648;51.130;13.978;2023-06-01T08:55:47;5.03;;;2.60;;
19030;SDS011;9648;51.130;13.978;2023-06-01T08:58:17;8.65;;;2.80;;
19030;SDS011;9648;51.130;13.978;2023-06-01T09:00:46;8.27;;;2.73;;
19030;SDS011;9648;51.130;13.978;2023-06-01T09:03:13;4.63;;;2.30;;
19030;SDS011;9648;51.130;13.978;2023-06-01T09:05:43;6.50;;;3.03;;
19030;SDS011;9648;51.130;13.978;2023-06-01T09:08:10;7.40;;;2.60;;
19030;SDS011;9648;51.130;13.978;2023-06-01T09:10:38;4.93;;;2.40;;
19030;SDS011;9648;51.130;13.978;2023-06-01T09:13:06;4.90;;;2.00;;
19030;SDS011;9648;51.130;13.978;2023-06-01T09:15:33;4.85;;;2.30;;
19030;SDS011;9648;51.130;13.978;2023-06-01T09:18:04;5.55;;;2.40;;
19030;SDS011;9648;51.130;13.978;2023-06-01T09:20:32;7.00;;;2.13;;
19030;SDS011;9648;51.130;13.978;2023-06-01T09:22:59;4.70;;;2.30;;
19030;SDS011;9648;51.130;13.978;2023-06-01T09:25:30;6.85;;;2.38;;
19030;SDS011;9648;51.130;13.978;2023-06-01T09:28:01;5.95;;;2.25;;
19030;SDS011;9648;51.130;13.978;2023-06-01T09:30:38;4.35;;;2.17;;
19030;SDS011;9648;51.130;13.978;2023-06-01T09:33:06;5.65;;;2.72;;
19030;SDS011;9648;51.130;13.978;2023-06-01T09:35:39;5.00;;;2.20;;
19030;SDS011;9648;51.130;13.978;2023-06-01T09:38:08;4.65;;;2.20;;
19030;SDS011;9648;51.130;13.978;2023-06-01T09:40:36;4.93;;;2.50;;
19030;SDS011;9648;51.130;13.978;2023-06-01T09:43:22;5.50;;;2.63;;
19030;SDS011;9648;51.130;13.978;2023-06-01T09:46:10;4.10;;;2.35;;
19030;SDS011;9648;51.130;13.978;2023-06-01T09:48:39;4.63;;;2.08;;
19030;SDS011;9648;51.130;13.978;2023-06-01T09:51:19;5.30;;;2.30;;
19030;SDS011;9648;51.130;13.978;2023-06-01T09:53:48;5.85;;;2.65;;
19030;SDS011;9648;51.130;13.978;2023-06-01T09:56:15;5.17;;;3.10;;
19030;SDS011;9648;51.130;13.978;2023-06-01T09:58:41;6.32;;;2.10;;
19030;SDS011;9648;51.130;13.978;2023-06-01T10:01:10;5.70;;;2.05;;
19030;SDS011;9648;51.130;13.978;2023-06-01T10:03:41;6.68;;;2.13;;
19030;SDS011;9648;51.130;13.978;2023-06-01T10:06:10;4.80;;;1.90;;
19030;SDS011;9648;51.130;13.978;2023-06-01T10:08:37;4.82;;;2.00;;
19030;SDS011;9648;51.130;13.978;2023-06-01T10:11:05;4.18;;;1.88;;
19030;SDS011;9648;51.130;13.978;2023-06-01T10:13:34;5.72;;;2.10;;
19030;SDS011;9648;51.130;13.978;2023-06-01T10:16:01;4.75;;;1.98;;
19030;SDS011;9648;51.130;13.978;2023-06-01T10:18:29;3.85;;;2.00;;
19030;SDS011;9648;51.130;13.978;2023-06-01T10:20:57;4.35;;;2.00;;
19030;SDS011;9648;51.130;13.978;2023-06-01T10:23:24;5.63;;;1.90;;
19030;SDS011;9648;51.130;13.978;2023-06-01T10:25:51;5.60;;;2.00;;
19030;SDS011;9648;51.130;13.978;2023-06-01T10:28:18;4.03;;;1.90;;
19030;SDS011;9648;51.130;13.978;2023-06-01T10:30:46;3.88;;;1.80;;
19030;SDS011;9648;51.130;13.978;2023-06-01T10:33:53;4.10;;;2.20;;
19030;SDS011;9648;51.130;13.978;2023-06-01T10:36:21;6.28;;;2.20;;
19030;SDS011;9648;51.130;13.978;2023-06-01T10:38:48;4.88;;;1.88;;
19030;SDS011;9648;51.130;13.978;2023-06-01T10:44:03;4.60;;;2.10;;
19030;SDS011;9648;51.130;13.978;2023-06-01T10:46:33;4.40;;;2.00;;
19030;SDS011;9648;51.130;13.978;2023-06-01T10:49:03;3.22;;;2.10;;
19030;SDS011;9648;51.130;13.978;2023-06-01T10:51:31;5.55;;;2.53;;
19030;SDS011;9648;51.130;13.978;2023-06-01T11:02:43;7.28;;;2.75;;
19030;SDS011;9648;51.130;13.978;2023-06-01T11:08:03;9.38;;;4.35;;
19030;SDS011;9648;51.130;13.978;2023-06-01T11:10:53;5.63;;;2.83;;
19030;SDS011;9648;51.130;13.978;2023-06-01T11:13:28;6.45;;;3.33;;
19030;SDS011;9648;51.130;13.978;2023-06-01T11:18:59;5.88;;;2.25;;
19030;SDS011;9648;51.130;13.978;2023-06-01T11:21:29;3.93;;;2.47;;
19030;SDS011;9648;51.130;13.978;2023-06-01T11:24:00;6.10;;;2.55;;
19030;SDS011;9648;51.130;13.978;2023-06-01T11:26:31;5.63;;;2.50;;
19030;SDS011;9648;51.130;13.978;2023-06-01T11:29:05;5.43;;;2.65;;
19030;SDS011;9648;51.130;13.978;2023-06-01T11:31:34;4.05;;;2.47;;
19030;SDS011;9648;51.130;13.978;2023-06-01T11:34:02;4.80;;;2.60;;
19030;SDS011;9648;51.130;13.978;2023-06-01T11:36:31;7.55;;;2.70;;
19030;SDS011;9648;51.130;13.978;2023-06-01T11:39:03;4.40;;;2.25;;
19030;SDS011;9648;51.130;13.978;2023-06-01T11:41:33;4.75;;;2.40;;
19030;SDS011;9648;51.130;13.978;2023-06-01T11:44:00;4.23;;;2.37;;
19030;SDS011;9648;51.130;13.978;2023-06-01T11:46:27;5.93;;;2.65;;
19030;SDS011;9648;51.130;13.978;2023-06-01T11:49:01;3.60;;;2.20;;
19030;SDS011;9648;51.130;13.978;2023-06-01T11:51:31;7.10;;;2.70;;
19030;SDS011;9648;51.130;13.978;2023-06-01T11:54:02;5.90;;;2.30;;
19030;SDS011;9648;51.130;13.978;2023-06-01T11:56:30;3.45;;;2.10;;
19030;SDS011;9648;51.130;13.978;2023-06-01T11:58:58;4.65;;;2.58;;
19030;SDS011;9648;51.130;13.978;2023-06-01T12:01:26;4.07;;;2.42;;
19030;SDS011;9648;51.130;13.978;2023-06-01T12:03:54;5.80;;;2.60;;
19030;SDS011;9648;51.130;13.978;2023-06-01T12:06:22;6.68;;;2.90;;
19030;SDS011;9648;51.130;13.978;2023-06-01T12:08:52;5.35;;;2.80;;
19030;SDS011;9648;51.130;13.978;2023-06-01T12:11:20;7.30;;;2.90;;
19030;SDS011;9648;51.130;13.978;2023-06-01T12:13:51;5.03;;;2.60;;
19030;SDS011;9648;51.130;13.978;2023-06-01T12:16:18;5.05;;;2.78;;
19030;SDS011;9648;51.130;13.978;2023-06-01T12:18:45;6.27;;;3.00;;
19030;SDS011;9648;51.130;13.978;2023-06-01T12:21:12;8.68;;;3.40;;
19030;SDS011;9648;51.130;13.978;2023-06-01T12:23:40;7.43;;;3.17;;
19030;SDS011;9648;51.130;13.978;2023-06-01T12:26:09;5.90;;;3.63;;
19030;SDS011;9648;51.130;13.978;2023-06-01T12:28:49;6.72;;;3.05;;
19030;SDS011;9648;51.130;13.978;2023-06-01T12:31:20;5.05;;;2.90;;
19030;SDS011;9648;51.130;13.978;2023-06-01T12:33:48;5.70;;;3.10;;
19030;SDS011;9648;51.130;13.978;2023-06-01T12:36:30;7.40;;;3.17;;
19030;SDS011;9648;51.130;13.978;2023-06-01T12:38:59;6.32;;;3.40;;
19030;SDS011;9648;51.130;13.978;2023-06-01T12:41:28;7.25;;;3.33;;
19030;SDS011;9648;51.130;13.978;2023-06-01T12:43:55;5.38;;;3.00;;
19030;SDS011;9648;51.130;13.978;2023-06-01T12:46:24;6.05;;;3.30;;
19030;SDS011;9648;51.130;13.978;2023-06-01T12:48:53;6.72;;;3.70;;
19030;SDS011;9648;51.130;13.978;2023-06-01T12:51:37;8.15;;;3.70;;
19030;SDS011;9648;51.130;13.978;2023-06-01T12:54:04;5.73;;;3.40;;
19030;SDS011;9648;51.130;13.978;2023-06-01T12:56:32;7.20;;;4.13;;
19030;SDS011;9648;51.130;13.978;2023-06-01T12:58:59;7.85;;;4.43;;
19030;SDS011;9648;51.130;13.978;2023-06-01T13:01:26;6.72;;;4.22;;
19030;SDS011;9648;51.130;13.978;2023-06-01T13:03:53;8.18;;;4.60;;
19030;SDS011;9648;51.130;13.978;2023-06-01T13:06:21;8.10;;;4.45;;
19030;SDS011;9648;51.130;13.978;2023-06-01T13:08:47;7.80;;;4.70;;
19030;SDS011;9648;51.130;13.978;2023-06-01T13:11:14;10.02;;;4.57;;
19030;SDS011;9648;51.130;13.978;2023-06-01T13:13:43;9.40;;;4.60;;
19030;SDS011;9648;51.130;13.978;2023-06-01T13:16:10;7.03;;;4.50;;
19030;SDS011;9648;51.130;13.978;2023-06-01T13:18:37;7.70;;;4.70;;
19030;SDS011;9648;51.130;13.978;2023-06-01T13:21:04;9.18;;;4.43;;
19030;SDS011;9648;51.130;13.978;2023-06-01T13:23:31;10.30;;;4.85;;
19030;SDS011;9648;51.130;13.978;2023-06-01T13:25:59;7.80;;;4.43;;
19030;SDS011;9648;51.130;13.978;2023-06-01T13:28:26;8.52;;;4.40;;
19030;SDS011;9648;51.130;13.978;2023-06-01T13:30:54;9.10;;;4.22;;
19030;SDS011;9648;51.130;13.978;2023-06-01T13:33:21;8.43;;;4.03;;
19030;SDS011;9648;51.130;13.978;2023-06-01T13:35:48;7.28;;;4.13;;
19030;SDS011;9648;51.130;13.978;2023-06-01T13:38:15;7.80;;;4.30;;
19030;SDS011;9648;51.130;13.978;2023-06-01T13:40:43;7.00;;;4.22;;
19030;SDS011;9648;51.130;13.978;2023-06-01T13:43:10;8.75;;;4.50;;
19030;SDS011;9648;51.130;13.978;2023-06-01T13:45:37;6.78;;;4.18;;
19030;SDS011;9648;51.130;13.978;2023-06-01T13:48:05;6.90;;;4.30;;
19030;SDS011;9648;51.130;13.978;2023-06-01T13:50:32;8.07;;;4.38;;
19030;SDS011;9648;51.130;13.978;2023-06-01T13:52:59;7.33;;;4.20;;
19030;SDS011;9648;51.130;13.978;2023-06-01T13:55:30;7.43;;;4.32;;
19030;SDS011;9648;51.130;13.978;2023-06-01T13:57:56;8.27;;;3.92;;
19030;SDS011;9648;51.130;13.978;2023-06-01T14:00:26;6.53;;;3.88;;
19030;SDS011;9648;51.130;13.978;2023-06-01T14:02:53;7.28;;;4.13;;
19030;SDS011;9648;51.130;13.978;2023-06-01T14:05:24;6.25;;;4.10;;
19030;SDS011;9648;51.130;13.978;2023-06-01T14:07:54;9.30;;;4.20;;
19030;SDS011;9648;51.130;13.978;2023-06-01T14:10:27;6.60;;;4.15;;
19030;SDS011;9648;51.130;13.978;2023-06-01T14:12:54;8.13;;;4.15;;
19030;SDS011;9648;51.130;13.978;2023-06-01T14:15:20;7.50;;;4.13;;
19030;SDS011;9648;51.130;13.978;2023-06-01T14:17:47;7.90;;;3.70;;
19030;SDS011;9648;51.130;13.978;2023-06-01T14:20:18;6.88;;;3.60;;
19030;SDS011;9648;51.130;13.978;2023-06-01T14:22:46;7.05;;;3.47;;
19030;SDS011;9648;51.130;13.978;2023-06-01T14:25:13;4.60;;;2.97;;
19030;SDS011;9648;51.130;13.978;2023-06-01T14:27:39;6.53;;;3.38;;
19030;SDS011;9648;51.130;13.978;2023-06-01T14:30:06;5.63;;;3.13;;
19030;SDS011;9648;51.130;13.978;2023-06-01T14:32:34;6.72;;;3.22;;
19030;SDS011;9648;51.130;13.978;2023-06-01T14:35:00;5.20;;;2.70;;
19030;SDS011;9648;51.130;13.978;2023-06-01T14:37:27;5.93;;;2.92;;
19030;SDS011;9648;51.130;13.978;2023-06-01T14:39:55;4.05;;;2.60;;
19030;SDS011;9648;51.130;13.978;2023-06-01T14:42:22;3.95;;;2.97;;
19030;SDS011;9648;51.130;13.978;2023-06-01T14:44:52;4.17;;;3.00;;
19030;SDS011;9648;51.130;13.978;2023-06-01T14:47:19;5.68;;;2.80;;
19030;SDS011;9648;51.130;13.978;2023-06-01T14:49:49;4.47;;;2.40;;
19030;SDS011;9648;51.130;13.978;2023-06-01T14:52:17;5.95;;;2.30;;
19030;SDS011;9648;51.130;13.978;2023-06-01T14:54:43;3.28;;;2.20;;
19030;SDS011;9648;51.130;13.978;2023-06-01T14:57:11;3.72;;;2.30;;
19030;SDS011;9648;51.130;13.978;2023-06-01T14:59:41;6.40;;;2.42;;
19030;SDS011;9648;51.130;13.978;2023-06-01T15:02:11;4.70;;;2.20;;
19030;SDS011;9648;51.130;13.978;2023-06-01T15:04:38;4.22;;;2.10;;
19030;SDS011;9648;51.130;13.978;2023-06-01T15:07:05;4.85;;;2.50;;
19030;SDS011;9648;51.130;13.978;2023-06-01T15:09:32;4.47;;;2.25;;
19030;SDS011;9648;51.130;13.978;2023-06-01T15:11:58;6.25;;;2.30;;
19030;SDS011;9648;51.130;13.978;2023-06-01T15:14:27;3.43;;;2.33;;